sensor_id;sensor_type;location;lat;lon;timestamp;P1;durP1;ratioP1;P2;durP2;ratioP2
57593;SDS011;43423;46.510;6.686;2022-08-19T00:01:20;7.90;;;5.43;;
57593;SDS011;43423;46.510;6.686;2022-08-19T00:03:47;6.18;;;4.80;;
57593;SDS011;43423;46.510;6.686;2022-08-19T00:06:14;6.72;;;5.10;;
57593;SDS011;43423;46.510;6.686;2022-08-19T00:08:39;6.60;;;5.13;;
57593;SDS011;43423;46.510;6.686;2022-08-19T00:11:05;6.82;;;4.68;;
57593;SDS011;43423;46.510;6.686;2022-08-19T00:13:31;5.80;;;4.72;;
57593;SDS011;43423;46.510;6.686;2022-08-19T00:15:56;6.80;;;5.05;;
57593;SDS011;43423;46.510;6.686;2022-08-19T00:18:24;9.73;;;5.25;;
57593;SDS011;43423;46.510;6.686;2022-08-19T00:20:49;6.75;;;5.15;;
57593;SDS011;43423;46.510;6.686;2022-08-19T00:23:15;6.78;;;4.43;;
57593;SDS011;43423;46.510;6.686;2022-08-19T00:25:41;6.57;;;5.05;;
57593;SDS011;43423;46.510;6.686;2022-08-19T00:28:06;6.75;;;4.78;;
57593;SDS011;43423;46.510;6.686;2022-08-19T00:30:32;6.75;;;4.40;;
57593;SDS011;43423;46.510;6.686;2022-08-19T00:32:58;6.20;;;4.22;;
57593;SDS011;43423;46.510;6.686;2022-08-19T00:35:23;5.05;;;3.80;;
57593;SDS011;43423;46.510;6.686;2022-08-19T00:37:50;5.57;;;3.92;;
57593;SDS011;43423;46.510;6.686;2022-08-19T00:40:16;5.55;;;3.75;;
57593;SDS011;43423;46.510;6.686;2022-08-19T00:42:43;5.13;;;3.88;;
57593;SDS011;43423;46.510;6.686;2022-08-19T00:45:20;5.28;;;3.92;;
57593;SDS011;43423;46.510;6.686;2022-08-19T00:47:48;11.23;;;4.38;;
57593;SDS011;43423;46.510;6.686;2022-08-19T00:50:15;5.60;;;4.28;;
57593;SDS011;43423;46.510;6.686;2022-08-19T00:52:43;6.70;;;4.93;;
57593;SDS011;43423;46.510;6.686;2022-08-19T00:55:18;7.38;;;4.50;;
57593;SDS011;43423;46.510;6.686;2022-08-19T00:57:48;6.13;;;4.00;;
57593;SDS011;43423;46.510;6.686;2022-08-19T01:00:20;7.63;;;5.10;;
57593;SDS011;43423;46.510;6.686;2022-08-19T01:02:47;7.40;;;4.72;;
57593;SDS011;43423;46.510;6.686;2022-08-19T01:05:14;6.95;;;4.65;;
57593;SDS011;43423;46.510;6.686;2022-08-19T01:07:43;7.07;;;4.93;;
57593;SDS011;43423;46.510;6.686;2022-08-19T01:10:12;5.70;;;4.50;;
57593;SDS011;43423;46.510;6.686;2022-08-19T01:15:07;7.63;;;4.97;;
57593;SDS011;43423;46.510;6.686;2022-08-19T01:17:35;5.75;;;4.18;;
57593;SDS011;43423;46.510;6.686;2022-08-19T01:20:04;5.18;;;4.22;;
57593;SDS011;43423;46.510;6.686;2022-08-19T01:25:07;4.20;;;3.33;;
57593;SDS011;43423;46.510;6.686;2022-08-19T01:27:39;4.03;;;2.40;;
57593;SDS011;43423;46.510;6.686;2022-08-19T01:30:06;4.40;;;2.70;;
57593;SDS011;43423;46.510;6.686;2022-08-19T01:32:33;2.85;;;2.17;;
57593;SDS011;43423;46.510;6.686;2022-08-19T01:34:58;3.25;;;2.08;;
57593;SDS011;43423;46.510;6.686;2022-08-19T01:37:26;2.53;;;1.55;;
57593;SDS011;43423;46.510;6.686;2022-08-19T01:39:52;2.55;;;1.80;;
57593;SDS011;43423;46.510;6.686;2022-08-19T01:42:18;5.60;;;1.83;;
57593;SDS011;43423;46.510;6.686;2022-08-19T01:44:45;2.85;;;1.55;;
57593;SDS011;43423;46.510;6.686;2022-08-19T01:47:10;2.50;;;2.05;;
57593;SDS011;43423;46.510;6.686;2022-08-19T01:49:36;3.65;;;2.30;;
57593;SDS011;43423;46.510;6.686;2022-08-19T01:52:03;5.45;;;3.25;;
57593;SDS011;43423;46.510;6.686;2022-08-19T01:54:29;3.65;;;2.38;;
57593;SDS011;43423;46.510;6.686;2022-08-19T01:56:57;4.68;;;2.67;;
57593;SDS011;43423;46.510;6.686;2022-08-19T01:59:29;4.53;;;2.47;;
57593;SDS011;43423;46.510;6.686;2022-08-19T02:01:55;5.80;;;2.60;;
57593;SDS011;43423;46.510;6.686;2022-08-19T02:04:21;5.50;;;2.70;;
57593;SDS011;43423;46.510;6.686;2022-08-19T02:06:48;3.88;;;2.53;;
57593;SDS011;43423;46.510;6.686;2022-08-19T02:09:13;5.07;;;2.30;;
57593;SDS011;43423;46.510;6.686;2022-08-19T02:11:39;3.60;;;2.22;;
57593;SDS011;43423;46.510;6.686;2022-08-19T02:14:06;2.47;;;2.08;;
57593;SDS011;43423;46.510;6.686;2022-08-19T02:16:33;2.55;;;2.10;;
57593;SDS011;43423;46.510;6.686;2022-08-19T02:18:59;3.50;;;1.70;;
57593;SDS011;43423;46.510;6.686;2022-08-19T02:21:28;2.72;;;1.92;;
57593;SDS011;43423;46.510;6.686;2022-08-19T02:23:54;2.13;;;1.70;;
57593;SDS011;43423;46.510;6.686;2022-08-19T02:26:20;2.40;;;1.75;;
57593;SDS011;43423;46.510;6.686;2022-08-19T02:28:47;3.22;;;1.88;;
57593;SDS011;43423;46.510;6.686;2022-08-19T02:31:17;4.00;;;2.28;;
57593;SDS011;43423;46.510;6.686;2022-08-19T02:33:45;2.95;;;1.52;;
57593;SDS011;43423;46.510;6.686;2022-08-19T02:36:12;3.28;;;1.90;;
57593;SDS011;43423;46.510;6.686;2022-08-19T02:38:39;2.63;;;1.88;;
57593;SDS011;43423;46.510;6.686;2022-08-19T02:41:06;3.15;;;2.20;;
57593;SDS011;43423;46.510;6.686;2022-08-19T02:43:37;2.40;;;1.83;;
57593;SDS011;43423;46.510;6.686;2022-08-19T02:46:19;3.15;;;1.92;;
57593;SDS011;43423;46.510;6.686;2022-08-19T02:48:51;4.35;;;2.30;;
57593;SDS011;43423;46.510;6.686;2022-08-19T02:51:23;2.75;;;2.20;;
57593;SDS011;43423;46.510;6.686;2022-08-19T02:53:52;2.17;;;1.80;;
57593;SDS011;43423;46.510;6.686;2022-08-19T02:56:18;3.13;;;2.08;;
57593;SDS011;43423;46.510;6.686;2022-08-19T02:58:44;3.40;;;2.28;;
57593;SDS011;43423;46.510;6.686;2022-08-19T03:01:11;3.28;;;2.05;;
57593;SDS011;43423;46.510;6.686;2022-08-19T03:03:45;2.58;;;1.83;;
57593;SDS011;43423;46.510;6.686;2022-08-19T03:06:13;3.35;;;1.67;;
57593;SDS011;43423;46.510;6.686;2022-08-19T03:08:41;3.10;;;2.10;;
57593;SDS011;43423;46.510;6.686;2022-08-19T03:11:21;2.20;;;1.77;;
57593;SDS011;43423;46.510;6.686;2022-08-19T03:13:52;2.20;;;1.83;;
57593;SDS011;43423;46.510;6.686;2022-08-19T03:16:18;1.65;;;1.55;;
57593;SDS011;43423;46.510;6.686;2022-08-19T03:18:45;2.17;;;1.98;;
57593;SDS011;43423;46.510;6.686;2022-08-19T03:21:15;3.45;;;1.80;;
57593;SDS011;43423;46.510;6.686;2022-08-19T03:26:07;3.80;;;1.88;;
57593;SDS011;43423;46.510;6.686;2022-08-19T03:28:33;2.55;;;1.77;;
57593;SDS011;43423;46.510;6.686;2022-08-19T03:31:00;5.60;;;1.98;;
57593;SDS011;43423;46.510;6.686;2022-08-19T03:33:31;1.98;;;1.60;;
57593;SDS011;43423;46.510;6.686;2022-08-19T03:36:03;8.27;;;2.17;;
57593;SDS011;43423;46.510;6.686;2022-08-19T03:38:32;2.28;;;1.63;;
57593;SDS011;43423;46.510;6.686;2022-08-19T03:41:02;2.78;;;1.52;;
57593;SDS011;43423;46.510;6.686;2022-08-19T03:43:28;2.03;;;1.50;;
57593;SDS011;43423;46.510;6.686;2022-08-19T03:46:10;3.55;;;1.65;;
57593;SDS011;43423;46.510;6.686;2022-08-19T03:48:38;2.92;;;1.45;;
57593;SDS011;43423;46.510;6.686;2022-08-19T03:51:06;1.67;;;1.33;;
57593;SDS011;43423;46.510;6.686;2022-08-19T03:53:33;2.33;;;1.80;;
57593;SDS011;43423;46.510;6.686;2022-08-19T03:56:00;3.30;;;1.90;;
57593;SDS011;43423;46.510;6.686;2022-08-19T03:58:27;3.65;;;1.95;;
57593;SDS011;43423;46.510;6.686;2022-08-19T04:00:57;2.72;;;1.55;;
57593;SDS011;43423;46.510;6.686;2022-08-19T04:03:24;2.40;;;1.60;;
57593;SDS011;43423;46.510;6.686;2022-08-19T04:05:52;4.20;;;2.00;;
57593;SDS011;43423;46.510;6.686;2022-08-19T04:08:18;4.22;;;2.10;;
57593;SDS011;43423;46.510;6.686;2022-08-19T04:10:48;2.40;;;1.88;;
57593;SDS011;43423;46.510;6.686;2022-08-19T04:13:14;2.53;;;1.50;;
57593;SDS011;43423;46.510;6.686;2022-08-19T04:15:42;3.75;;;1.80;;
57593;SDS011;43423;46.510;6.686;2022-08-19T04:18:12;2.92;;;1.58;;
57593;SDS011;43423;46.510;6.686;2022-08-19T04:20:39;4.10;;;1.60;;
57593;SDS011;43423;46.510;6.686;2022-08-19T04:23:08;7.93;;;2.00;;
57593;SDS011;43423;46.510;6.686;2022-08-19T04:25:35;7.22;;;2.10;;
57593;SDS011;43423;46.510;6.686;2022-08-19T04:28:04;3.53;;;2.25;;
57593;SDS011;43423;46.510;6.686;2022-08-19T04:30:30;3.95;;;1.70;;
57593;SDS011;43423;46.510;6.686;2022-08-19T04:32:55;1.55;;;1.40;;
57593;SDS011;43423;46.510;6.686;2022-08-19T04:35:21;4.90;;;1.83;;
57593;SDS011;43423;46.510;6.686;2022-08-19T04:37:47;4.88;;;1.80;;
57593;SDS011;43423;46.510;6.686;2022-08-19T04:40:13;3.35;;;2.08;;
57593;SDS011;43423;46.510;6.686;2022-08-19T04:42:57;3.17;;;1.85;;
57593;SDS011;43423;46.510;6.686;2022-08-19T04:45:22;5.97;;;2.70;;
57593;SDS011;43423;46.510;6.686;2022-08-19T04:47:48;5.53;;;1.80;;
57593;SDS011;43423;46.510;6.686;2022-08-19T04:50:13;2.15;;;1.90;;
57593;SDS011;43423;46.510;6.686;2022-08-19T04:52:40;4.60;;;2.42;;
57593;SDS011;43423;46.510;6.686;2022-08-19T04:55:09;4.63;;;2.10;;
57593;SDS011;43423;46.510;6.686;2022-08-19T04:57:35;5.10;;;2.22;;
57593;SDS011;43423;46.510;6.686;2022-08-19T05:00:04;6.60;;;2.55;;
57593;SDS011;43423;46.510;6.686;2022-08-19T05:02:30;5.07;;;2.50;;
57593;SDS011;43423;46.510;6.686;2022-08-19T05:04:56;3.45;;;1.98;;
57593;SDS011;43423;46.510;6.686;2022-08-19T05:07:23;4.72;;;2.35;;
57593;SDS011;43423;46.510;6.686;2022-08-19T05:09:49;3.13;;;2.00;;
57593;SDS011;43423;46.510;6.686;2022-08-19T05:12:14;6.00;;;2.15;;
57593;SDS011;43423;46.510;6.686;2022-08-19T05:14:40;4.57;;;2.10;;
57593;SDS011;43423;46.510;6.686;2022-08-19T05:17:06;2.75;;;1.90;;
57593;SDS011;43423;46.510;6.686;2022-08-19T05:19:31;3.70;;;1.80;;
57593;SDS011;43423;46.510;6.686;2022-08-19T05:22:15;2.80;;;1.83;;
57593;SDS011;43423;46.510;6.686;2022-08-19T05:25:01;4.38;;;1.98;;
57593;SDS011;43423;46.510;6.686;2022-08-19T05:29:56;3.28;;;2.17;;
57593;SDS011;43423;46.510;6.686;2022-08-19T05:32:21;2.90;;;2.08;;
57593;SDS011;43423;46.510;6.686;2022-08-19T05:34:48;7.65;;;3.08;;
57593;SDS011;43423;46.510;6.686;2022-08-19T05:37:14;3.50;;;2.25;;
57593;SDS011;43423;46.510;6.686;2022-08-19T05:39:39;6.72;;;2.67;;
57593;SDS011;43423;46.510;6.686;2022-08-19T05:42:07;4.88;;;2.45;;
57593;SDS011;43423;46.510;6.686;2022-08-19T05:44:35;2.95;;;2.63;;
57593;SDS011;43423;46.510;6.686;2022-08-19T05:47:05;2.85;;;2.20;;
57593;SDS011;43423;46.510;6.686;2022-08-19T05:49:33;5.07;;;2.40;;
57593;SDS011;43423;46.510;6.686;2022-08-19T05:52:02;3.38;;;2.33;;
57593;SDS011;43423;46.510;6.686;2022-08-19T05:54:33;4.13;;;2.88;;
57593;SDS011;43423;46.510;6.686;2022-08-19T05:56:59;6.07;;;2.60;;
57593;SDS011;43423;46.510;6.686;2022-08-19T05:59:26;5.25;;;1.98;;
57593;SDS011;43423;46.510;6.686;2022-08-19T06:01:51;6.75;;;2.85;;
57593;SDS011;43423;46.510;6.686;2022-08-19T06:04:19;2.80;;;2.10;;
57593;SDS011;43423;46.510;6.686;2022-08-19T06:06:50;4.13;;;2.22;;
57593;SDS011;43423;46.510;6.686;2022-08-19T06:09:17;6.28;;;2.40;;
57593;SDS011;43423;46.510;6.686;2022-08-19T06:11:45;3.20;;;2.17;;
57593;SDS011;43423;46.510;6.686;2022-08-19T06:14:15;3.72;;;2.17;;
57593;SDS011;43423;46.510;6.686;2022-08-19T06:16:44;4.47;;;1.95;;
57593;SDS011;43423;46.510;6.686;2022-08-19T06:19:11;3.72;;;1.98;;
57593;SDS011;43423;46.510;6.686;2022-08-19T06:21:43;6.38;;;2.10;;
57593;SDS011;43423;46.510;6.686;2022-08-19T06:24:14;7.07;;;2.78;;
57593;SDS011;43423;46.510;6.686;2022-08-19T06:26:42;4.70;;;2.42;;
57593;SDS011;43423;46.510;6.686;2022-08-19T06:29:10;4.65;;;2.60;;
57593;SDS011;43423;46.510;6.686;2022-08-19T06:31:40;7.28;;;2.83;;
57593;SDS011;43423;46.510;6.686;2022-08-19T06:34:07;4.05;;;2.90;;
57593;SDS011;43423;46.510;6.686;2022-08-19T06:36:34;5.30;;;2.90;;
57593;SDS011;43423;46.510;6.686;2022-08-19T06:39:03;6.22;;;3.08;;
57593;SDS011;43423;46.510;6.686;2022-08-19T06:41:30;5.38;;;3.13;;
57593;SDS011;43423;46.510;6.686;2022-08-19T06:43:56;6.72;;;3.40;;
57593;SDS011;43423;46.510;6.686;2022-08-19T06:46:22;4.53;;;3.28;;
57593;SDS011;43423;46.510;6.686;2022-08-19T06:48:48;7.05;;;3.17;;
57593;SDS011;43423;46.510;6.686;2022-08-19T06:51:15;4.97;;;3.47;;
57593;SDS011;43423;46.510;6.686;2022-08-19T06:53:50;8.80;;;3.88;;
57593;SDS011;43423;46.510;6.686;2022-08-19T06:56:22;7.20;;;3.53;;
57593;SDS011;43423;46.510;6.686;2022-08-19T06:58:51;6.47;;;3.85;;
57593;SDS011;43423;46.510;6.686;2022-08-19T07:01:17;10.55;;;3.65;;
57593;SDS011;43423;46.510;6.686;2022-08-19T07:03:43;6.70;;;4.18;;
57593;SDS011;43423;46.510;6.686;2022-08-19T07:06:10;9.73;;;4.63;;
57593;SDS011;43423;46.510;6.686;2022-08-19T07:08:39;7.45;;;3.45;;
57593;SDS011;43423;46.510;6.686;2022-08-19T07:11:06;6.25;;;3.33;;
57593;SDS011;43423;46.510;6.686;2022-08-19T07:13:34;5.93;;;4.00;;
57593;SDS011;43423;46.510;6.686;2022-08-19T07:16:08;7.30;;;3.38;;
57593;SDS011;43423;46.510;6.686;2022-08-19T07:18:37;6.35;;;3.97;;
57593;SDS011;43423;46.510;6.686;2022-08-19T07:21:11;8.05;;;3.58;;
57593;SDS011;43423;46.510;6.686;2022-08-19T07:23:40;5.75;;;3.35;;
57593;SDS011;43423;46.510;6.686;2022-08-19T07:26:11;7.28;;;4.22;;
57593;SDS011;43423;46.510;6.686;2022-08-19T07:28:44;9.02;;;4.05;;
57593;SDS011;43423;46.510;6.686;2022-08-19T07:31:16;6.00;;;3.38;;
57593;SDS011;43423;46.510;6.686;2022-08-19T07:33:44;10.18;;;4.10;;
57593;SDS011;43423;46.510;6.686;2022-08-19T07:36:12;7.50;;;3.58;;
57593;SDS011;43423;46.510;6.686;2022-08-19T07:38:44;7.20;;;3.90;;
57593;SDS011;43423;46.510;6.686;2022-08-19T07:41:13;6.82;;;3.78;;
57593;SDS011;43423;46.510;6.686;2022-08-19T07:43:41;8.68;;;4.07;;
57593;SDS011;43423;46.510;6.686;2022-08-19T07:46:09;7.35;;;4.80;;
57593;SDS011;43423;46.510;6.686;2022-08-19T07:48:35;9.48;;;5.18;;
57593;SDS011;43423;46.510;6.686;2022-08-19T07:51:03;9.25;;;5.30;;
57593;SDS011;43423;46.510;6.686;2022-08-19T07:53:30;10.00;;;4.85;;
57593;SDS011;43423;46.510;6.686;2022-08-19T07:56:00;7.55;;;4.63;;
57593;SDS011;43423;46.510;6.686;2022-08-19T07:58:27;10.95;;;5.20;;
57593;SDS011;43423;46.510;6.686;2022-08-19T08:00:53;7.72;;;5.07;;
57593;SDS011;43423;46.510;6.686;2022-08-19T08:03:20;10.85;;;5.13;;
57593;SDS011;43423;46.510;6.686;2022-08-19T08:06:06;8.13;;;5.32;;
57593;SDS011;43423;46.510;6.686;2022-08-19T08:08:51;9.40;;;5.82;;
57593;SDS011;43423;46.510;6.686;2022-08-19T08:11:35;10.57;;;5.47;;
57593;SDS011;43423;46.510;6.686;2022-08-19T08:14:01;6.65;;;4.78;;
57593;SDS011;43423;46.510;6.686;2022-08-19T08:16:27;9.27;;;5.60;;
57593;SDS011;43423;46.510;6.686;2022-08-19T08:18:56;9.10;;;5.55;;
57593;SDS011;43423;46.510;6.686;2022-08-19T08:21:22;10.68;;;5.82;;
57593;SDS011;43423;46.510;6.686;2022-08-19T08:23:47;7.60;;;5.15;;
57593;SDS011;43423;46.510;6.686;2022-08-19T08:26:13;11.25;;;6.18;;
57593;SDS011;43423;46.510;6.686;2022-08-19T08:28:40;8.38;;;5.60;;
57593;SDS011;43423;46.510;6.686;2022-08-19T08:31:05;8.80;;;5.53;;
57593;SDS011;43423;46.510;6.686;2022-08-19T08:33:30;11.73;;;5.93;;
57593;SDS011;43423;46.510;6.686;2022-08-19T08:35:56;8.82;;;5.55;;
57593;SDS011;43423;46.510;6.686;2022-08-19T08:38:22;11.05;;;6.05;;
57593;SDS011;43423;46.510;6.686;2022-08-19T08:40:49;7.78;;;5.18;;
57593;SDS011;43423;46.510;6.686;2022-08-19T08:43:33;8.45;;;5.75;;
57593;SDS011;43423;46.510;6.686;2022-08-19T08:46:05;9.98;;;5.35;;
57593;SDS011;43423;46.510;6.686;2022-08-19T08:51:35;7.85;;;4.90;;
57593;SDS011;43423;46.510;6.686;2022-08-19T08:54:13;7.10;;;4.65;;
57593;SDS011;43423;46.510;6.686;2022-08-19T08:56:43;9.00;;;5.40;;
57593;SDS011;43423;46.510;6.686;2022-08-19T08:59:24;9.32;;;5.95;;
57593;SDS011;43423;46.510;6.686;2022-08-19T09:01:57;9.90;;;5.78;;
57593;SDS011;43423;46.510;6.686;2022-08-19T09:04:23;7.72;;;5.80;;
57593;SDS011;43423;46.510;6.686;2022-08-19T09:06:52;9.40;;;5.93;;
57593;SDS011;43423;46.510;6.686;2022-08-19T09:09:35;10.25;;;6.13;;
57593;SDS011;43423;46.510;6.686;2022-08-19T09:12:25;7.55;;;5.50;;
57593;SDS011;43423;46.510;6.686;2022-08-19T09:15:12;9.02;;;6.40;;
57593;SDS011;43423;46.510;6.686;2022-08-19T09:17:39;9.85;;;6.30;;
57593;SDS011;43423;46.510;6.686;2022-08-19T09:22:32;11.98;;;6.43;;
57593;SDS011;43423;46.510;6.686;2022-08-19T09:24:58;8.95;;;6.22;;
57593;SDS011;43423;46.510;6.686;2022-08-19T09:27:25;8.30;;;5.63;;
57593;SDS011;43423;46.510;6.686;2022-08-19T09:29:52;11.15;;;6.70;;
57593;SDS011;43423;46.510;6.686;2022-08-19T09:32:19;9.20;;;6.03;;
57593;SDS011;43423;46.510;6.686;2022-08-19T09:34:46;9.05;;;6.25;;
57593;SDS011;43423;46.510;6.686;2022-08-19T09:37:11;7.82;;;5.78;;
57593;SDS011;43423;46.510;6.686;2022-08-19T09:39:38;11.18;;;6.53;;
57593;SDS011;43423;46.510;6.686;2022-08-19T09:42:06;9.45;;;6.43;;
57593;SDS011;43423;46.510;6.686;2022-08-19T09:47:02;9.75;;;5.60;;
57593;SDS011;43423;46.510;6.686;2022-08-19T09:49:29;9.13;;;6.13;;
57593;SDS011;43423;46.510;6.686;2022-08-19T09:51:56;8.82;;;5.90;;
57593;SDS011;43423;46.510;6.686;2022-08-19T09:54:22;8.52;;;5.90;;
57593;SDS011;43423;46.510;6.686;2022-08-19T09:56:49;7.78;;;5.65;;
57593;SDS011;43423;46.510;6.686;2022-08-19T09:59:15;9.40;;;6.00;;
57593;SDS011;43423;46.510;6.686;2022-08-19T10:01:40;9.02;;;6.38;;
57593;SDS011;43423;46.510;6.686;2022-08-19T10:04:06;9.32;;;6.35;;
57593;SDS011;43423;46.510;6.686;2022-08-19T10:06:35;9.77;;;6.78;;
57593;SDS011;43423;46.510;6.686;2022-08-19T10:09:03;11.55;;;6.68;;
57593;SDS011;43423;46.510;6.686;2022-08-19T10:11:31;9.77;;;6.40;;
57593;SDS011;43423;46.510;6.686;2022-08-19T10:13:58;10.00;;;6.00;;
57593;SDS011;43423;46.510;6.686;2022-08-19T10:16:24;9.63;;;5.65;;
57593;SDS011;43423;46.510;6.686;2022-08-19T10:18:50;9.77;;;6.32;;
57593;SDS011;43423;46.510;6.686;2022-08-19T10:21:20;10.07;;;6.63;;
57593;SDS011;43423;46.510;6.686;2022-08-19T10:23:48;9.10;;;5.68;;
57593;SDS011;43423;46.510;6.686;2022-08-19T10:26:17;9.13;;;5.55;;
57593;SDS011;43423;46.510;6.686;2022-08-19T10:28:45;7.97;;;5.60;;
57593;SDS011;43423;46.510;6.686;2022-08-19T10:31:15;8.20;;;5.68;;
57593;SDS011;43423;46.510;6.686;2022-08-19T10:33:44;8.13;;;5.60;;
57593;SDS011;43423;46.510;6.686;2022-08-19T10:36:14;8.13;;;5.53;;
57593;SDS011;43423;46.510;6.686;2022-08-19T10:38:44;7.30;;;5.68;;
57593;SDS011;43423;46.510;6.686;2022-08-19T10:41:16;7.75;;;5.60;;
57593;SDS011;43423;46.510;6.686;2022-08-19T10:43:44;7.75;;;5.40;;
57593;SDS011;43423;46.510;6.686;2022-08-19T10:46:11;7.82;;;5.47;;
57593;SDS011;43423;46.510;6.686;2022-08-19T10:48:39;9.07;;;5.68;;
57593;SDS011;43423;46.510;6.686;2022-08-19T10:51:05;7.18;;;5.15;;
57593;SDS011;43423;46.510;6.686;2022-08-19T10:53:49;8.00;;;5.03;;
57593;SDS011;43423;46.510;6.686;2022-08-19T10:56:16;7.80;;;5.40;;
57593;SDS011;43423;46.510;6.686;2022-08-19T10:59:01;7.00;;;4.97;;
57593;SDS011;43423;46.510;6.686;2022-08-19T11:01:28;8.43;;;5.68;;
57593;SDS011;43423;46.510;6.686;2022-08-19T11:03:56;8.30;;;5.72;;
57593;SDS011;43423;46.510;6.686;2022-08-19T11:06:24;11.15;;;5.93;;
57593;SDS011;43423;46.510;6.686;2022-08-19T11:08:51;9.10;;;5.82;;
57593;SDS011;43423;46.510;6.686;2022-08-19T11:11:17;7.15;;;5.25;;
57593;SDS011;43423;46.510;6.686;2022-08-19T11:13:43;7.25;;;5.20;;
57593;SDS011;43423;46.510;6.686;2022-08-19T11:16:11;7.30;;;5.47;;
57593;SDS011;43423;46.510;6.686;2022-08-19T11:18:42;6.97;;;5.00;;
57593;SDS011;43423;46.510;6.686;2022-08-19T11:21:14;7.22;;;5.50;;
57593;SDS011;43423;46.510;6.686;2022-08-19T11:23:42;10.23;;;5.45;;
57593;SDS011;43423;46.510;6.686;2022-08-19T11:26:08;8.18;;;5.65;;
57593;SDS011;43423;46.510;6.686;2022-08-19T11:28:34;8.57;;;5.53;;
57593;SDS011;43423;46.510;6.686;2022-08-19T11:31:01;7.97;;;5.57;;
57593;SDS011;43423;46.510;6.686;2022-08-19T11:33:28;8.23;;;5.75;;
57593;SDS011;43423;46.510;6.686;2022-08-19T11:35:58;9.70;;;6.50;;
57593;SDS011;43423;46.510;6.686;2022-08-19T11:38:25;16.27;;;6.50;;
57593;SDS011;43423;46.510;6.686;2022-08-19T11:40:58;6.88;;;5.53;;
57593;SDS011;43423;46.510;6.686;2022-08-19T11:43:26;8.88;;;6.07;;
57593;SDS011;43423;46.510;6.686;2022-08-19T11:45:55;9.57;;;6.18;;
57593;SDS011;43423;46.510;6.686;2022-08-19T11:48:21;7.68;;;5.80;;
57593;SDS011;43423;46.510;6.686;2022-08-19T11:50:48;9.52;;;6.07;;
57593;SDS011;43423;46.510;6.686;2022-08-19T11:53:14;10.10;;;5.65;;
57593;SDS011;43423;46.510;6.686;2022-08-19T11:55:40;9.63;;;5.85;;
57593;SDS011;43423;46.510;6.686;2022-08-19T11:58:07;7.93;;;5.93;;
57593;SDS011;43423;46.510;6.686;2022-08-19T12:00:34;8.88;;;5.70;;
57593;SDS011;43423;46.510;6.686;2022-08-19T12:03:01;8.63;;;5.32;;
57593;SDS011;43423;46.510;6.686;2022-08-19T12:05:27;8.20;;;6.03;;
57593;SDS011;43423;46.510;6.686;2022-08-19T12:07:53;8.10;;;5.25;;
57593;SDS011;43423;46.510;6.686;2022-08-19T12:10:19;9.07;;;5.32;;
57593;SDS011;43423;46.510;6.686;2022-08-19T12:12:46;9.25;;;5.72;;
57593;SDS011;43423;46.510;6.686;2022-08-19T12:15:12;7.03;;;4.53;;
57593;SDS011;43423;46.510;6.686;2022-08-19T12:17:39;7.50;;;5.10;;
57593;SDS011;43423;46.510;6.686;2022-08-19T12:20:07;7.82;;;5.30;;
57593;SDS011;43423;46.510;6.686;2022-08-19T12:22:36;9.00;;;5.30;;
57593;SDS011;43423;46.510;6.686;2022-08-19T12:25:04;8.68;;;5.28;;
57593;SDS011;43423;46.510;6.686;2022-08-19T12:27:30;6.22;;;4.70;;
57593;SDS011;43423;46.510;6.686;2022-08-19T12:29:56;6.82;;;4.97;;
57593;SDS011;43423;46.510;6.686;2022-08-19T12:32:22;7.38;;;5.15;;
57593;SDS011;43423;46.510;6.686;2022-08-19T12:34:50;7.97;;;5.50;;
57593;SDS011;43423;46.510;6.686;2022-08-19T12:37:15;7.82;;;5.53;;
57593;SDS011;43423;46.510;6.686;2022-08-19T12:39:41;7.72;;;5.55;;
57593;SDS011;43423;46.510;6.686;2022-08-19T12:42:09;8.73;;;5.63;;
57593;SDS011;43423;46.510;6.686;2022-08-19T12:44:37;6.10;;;4.45;;
57593;SDS011;43423;46.510;6.686;2022-08-19T12:47:04;7.72;;;4.88;;
57593;SDS011;43423;46.510;6.686;2022-08-19T12:49:31;7.05;;;5.25;;
57593;SDS011;43423;46.510;6.686;2022-08-19T12:51:59;8.65;;;5.95;;
57593;SDS011;43423;46.510;6.686;2022-08-19T12:54:26;7.22;;;5.28;;
57593;SDS011;43423;46.510;6.686;2022-08-19T12:56:52;7.28;;;5.10;;
57593;SDS011;43423;46.510;6.686;2022-08-19T12:59:17;9.05;;;5.93;;
57593;SDS011;43423;46.510;6.686;2022-08-19T13:01:44;7.78;;;5.43;;
57593;SDS011;43423;46.510;6.686;2022-08-19T13:04:10;6.97;;;4.80;;
57593;SDS011;43423;46.510;6.686;2022-08-19T13:06:36;6.75;;;5.13;;
57593;SDS011;43423;46.510;6.686;2022-08-19T13:09:02;8.07;;;5.70;;
57593;SDS011;43423;46.510;6.686;2022-08-19T13:11:29;8.07;;;5.68;;
57593;SDS011;43423;46.510;6.686;2022-08-19T13:13:57;8.60;;;5.55;;
57593;SDS011;43423;46.510;6.686;2022-08-19T13:16:24;7.28;;;5.07;;
57593;SDS011;43423;46.510;6.686;2022-08-19T13:18:51;7.13;;;5.10;;
57593;SDS011;43423;46.510;6.686;2022-08-19T13:21:17;7.95;;;5.65;;
57593;SDS011;43423;46.510;6.686;2022-08-19T13:23:45;9.50;;;5.60;;
57593;SDS011;43423;46.510;6.686;2022-08-19T13:26:11;8.20;;;5.80;;
57593;SDS011;43423;46.510;6.686;2022-08-19T13:28:37;8.98;;;5.85;;
57593;SDS011;43423;46.510;6.686;2022-08-19T13:31:23;8.65;;;5.57;;
57593;SDS011;43423;46.510;6.686;2022-08-19T13:34:08;9.38;;;6.07;;
57593;SDS011;43423;46.510;6.686;2022-08-19T13:36:34;8.70;;;5.93;;
57593;SDS011;43423;46.510;6.686;2022-08-19T13:39:00;10.10;;;6.25;;
57593;SDS011;43423;46.510;6.686;2022-08-19T13:41:27;9.70;;;5.90;;
57593;SDS011;43423;46.510;6.686;2022-08-19T13:43:53;9.52;;;6.45;;
57593;SDS011;43423;46.510;6.686;2022-08-19T13:46:19;9.07;;;6.25;;
57593;SDS011;43423;46.510;6.686;2022-08-19T13:48:45;10.05;;;6.53;;
57593;SDS011;43423;46.510;6.686;2022-08-19T13:51:14;10.48;;;7.28;;
57593;SDS011;43423;46.510;6.686;2022-08-19T13:53:41;9.85;;;6.15;;
57593;SDS011;43423;46.510;6.686;2022-08-19T13:56:09;8.75;;;6.00;;
57593;SDS011;43423;46.510;6.686;2022-08-19T13:58:37;10.65;;;6.63;;
57593;SDS011;43423;46.510;6.686;2022-08-19T14:01:03;10.95;;;6.95;;
57593;SDS011;43423;46.510;6.686;2022-08-19T14:03:31;13.27;;;7.07;;
57593;SDS011;43423;46.510;6.686;2022-08-19T14:05:58;11.30;;;6.38;;
57593;SDS011;43423;46.510;6.686;2022-08-19T14:08:23;7.60;;;6.20;;
57593;SDS011;43423;46.510;6.686;2022-08-19T14:10:50;9.55;;;6.85;;
57593;SDS011;43423;46.510;6.686;2022-08-19T14:13:18;9.38;;;6.38;;
57593;SDS011;43423;46.510;6.686;2022-08-19T14:15:45;9.02;;;6.20;;
57593;SDS011;43423;46.510;6.686;2022-08-19T14:18:12;10.38;;;6.70;;
57593;SDS011;43423;46.510;6.686;2022-08-19T14:20:38;11.13;;;6.43;;
57593;SDS011;43423;46.510;6.686;2022-08-19T14:23:04;10.40;;;6.38;;
57593;SDS011;43423;46.510;6.686;2022-08-19T14:25:32;8.93;;;6.20;;
57593;SDS011;43423;46.510;6.686;2022-08-19T14:27:59;10.20;;;6.68;;
57593;SDS011;43423;46.510;6.686;2022-08-19T14:30:28;7.07;;;5.57;;
57593;SDS011;43423;46.510;6.686;2022-08-19T14:32:57;8.40;;;6.30;;
57593;SDS011;43423;46.510;6.686;2022-08-19T14:35:24;8.50;;;5.97;;
57593;SDS011;43423;46.510;6.686;2022-08-19T14:37:51;11.10;;;6.10;;
57593;SDS011;43423;46.510;6.686;2022-08-19T14:40:21;10.75;;;6.90;;
57593;SDS011;43423;46.510;6.686;2022-08-19T14:42:51;9.45;;;6.65;;
57593;SDS011;43423;46.510;6.686;2022-08-19T14:45:20;15.43;;;7.88;;
57593;SDS011;43423;46.510;6.686;2022-08-19T14:47:46;11.20;;;7.25;;
57593;SDS011;43423;46.510;6.686;2022-08-19T14:50:12;11.48;;;6.68;;
57593;SDS011;43423;46.510;6.686;2022-08-19T14:52:37;11.52;;;7.20;;
57593;SDS011;43423;46.510;6.686;2022-08-19T14:55:04;11.65;;;7.07;;
57593;SDS011;43423;46.510;6.686;2022-08-19T14:57:30;12.05;;;7.15;;
57593;SDS011;43423;46.510;6.686;2022-08-19T14:59:55;12.18;;;7.05;;
57593;SDS011;43423;46.510;6.686;2022-08-19T15:02:22;12.20;;;8.07;;
57593;SDS011;43423;46.510;6.686;2022-08-19T15:04:48;11.38;;;7.35;;
57593;SDS011;43423;46.510;6.686;2022-08-19T15:07:13;11.07;;;6.63;;
57593;SDS011;43423;46.510;6.686;2022-08-19T15:09:39;11.77;;;7.35;;